This is the latest recevied weather packets stored in our database for station/object SHLBYV-WX. If no packets are shown the sender has not sent any weather packets the latest 10 day(s).
| Time | Temp. | Humidity | Pressure | Rain* | Wind** | Luminosity | Snow |
|---|---|---|---|---|---|---|---|
| 1778071555 | 6.11° C | 65% | 981.8 hPa | 0 mm | - | - | - |
| 1778070672 | 5.56° C | 65% | 981.8 hPa | 0 mm | - | - | - |
| 1778069757 | 5° C | 65% | 981.8 hPa | 0 mm | - | - | - |
| 1778068894 | 4.44° C | 65% | 981.8 hPa | 0 mm | - | - | - |
| 1778067955 | 3.89° C | 67% | 981.1 hPa | 0 mm | - | - | - |
| 1778067071 | 3.89° C | 69% | 981.1 hPa | 0 mm | - | - | - |
| 1778066153 | 3.33° C | 69% | 981.1 hPa | 0 mm | - | - | - |
| 1778065286 | 2.78° C | 69% | 981.1 hPa | 0 mm | - | - | - |
| 1778064352 | 2.78° C | 67% | 980.7 hPa | 0 mm | - | - | - |
| 1778063470 | 2.78° C | 67% | 981.2 hPa | 0 mm | - | - | - |
| 1778062553 | 2.78° C | 67% | 981.2 hPa | 0 mm | - | - | - |
| 1778061690 | 3.33° C | 67% | 981.2 hPa | 0 mm | - | - | - |
| 1778060753 | 3.33° C | 62% | 980 hPa | 0 mm | - | - | - |
| 1778059869 | 3.33° C | 62% | 980.5 hPa | 0 mm | - | - | - |
| 1778058952 | 3.89° C | 62% | 980.5 hPa | 0 mm | - | - | - |
| 1778058089 | 3.89° C | 62% | 980.5 hPa | 0 mm | - | - | - |
| 1778057152 | 3.89° C | 59% | 979.9 hPa | 0 mm | - | - | - |
| 1778056266 | 3.89° C | 62% | 980.3 hPa | 0 mm | - | - | - |
| 1778055352 | 4.44° C | 62% | 980.3 hPa | 0 mm | - | - | - |
| 1778054488 | 4.44° C | 62% | 980.3 hPa | 0 mm | - | - | - |
| 1778053551 | 4.44° C | 61% | 980.1 hPa | 0 mm | - | - | - |
| 1778052671 | 4.44° C | 61% | 980.1 hPa | 0 mm | - | - | - |
| 1778051752 | 5° C | 61% | 980.1 hPa | 0 mm | - | - | - |
| 1778050880 | 5° C | 61% | 980.1 hPa | 0 mm | - | - | - |
| 1778049952 | 5° C | 68% | 980.5 hPa | 0 mm | - | - | - |
* Rain latest hour (hover to see other rain measurements)
** Current wind speed in m/s (hover to see current wind gust speed)